createdAt,value
2022-08-26T10:02:59.839Z,44.53
2022-08-26T10:19:01.059Z,40.74
2022-08-26T13:24:49.031Z,35.05
2022-08-26T13:58:40.041Z,34.87
2022-08-26T14:01:35.332Z,34.14
2022-08-26T14:04:04.211Z,35.25
2022-08-26T16:18:08.597Z,39.65
2022-08-26T17:05:56.513Z,42.38
2022-08-26T17:08:28.945Z,42.62
2022-08-26T17:10:36.528Z,42.44
2022-08-26T17:12:44.887Z,43.07
2022-08-26T17:14:50.945Z,42.78
2022-08-26T17:16:54.749Z,43.01
2022-08-26T17:28:13.314Z,44.28
2022-08-26T17:37:06.135Z,45.13
2022-08-26T17:39:14.151Z,45.42
2022-08-26T17:41:21.060Z,45.44
2022-08-26T17:43:28.191Z,45.57
2022-08-26T17:48:12.108Z,45.72
2022-08-26T17:50:18.613Z,45.84
2022-08-26T17:52:22.056Z,46.08
2022-08-26T17:54:25.528Z,45.98
2022-08-26T17:56:30.938Z,46.13
2022-08-26T17:58:35.143Z,46.44
2022-08-26T18:00:38.745Z,46.53
2022-08-26T18:02:43.693Z,46.89
2022-08-26T18:04:47.180Z,46.95
2022-08-26T18:06:50.762Z,47.10
2022-08-26T18:08:55.015Z,47.21
2022-08-26T18:11:03.159Z,47.08
2022-08-26T18:13:12.144Z,47.42
2022-08-26T18:15:26.913Z,47.28
2022-08-26T18:17:30.254Z,47.43
2022-08-26T18:19:33.615Z,47.57
2022-08-26T18:21:37.759Z,47.62
2022-08-26T18:30:27.893Z,48.10
2022-08-26T18:32:40.616Z,47.93
2022-08-26T18:34:53.039Z,48.26
2022-08-26T18:36:57.270Z,48.37
2022-08-26T18:39:41.897Z,48.24
2022-08-26T18:42:01.754Z,48.26
2022-08-26T18:44:37.914Z,48.47
2022-08-26T18:46:42.134Z,48.73
2022-08-26T18:48:45.723Z,49.10
2022-08-26T19:00:10.885Z,49.49
2022-08-26T19:09:20.168Z,50.01
2022-08-26T19:22:49.533Z,50.60
2022-08-26T19:25:00.083Z,50.19
2022-08-26T19:37:10.030Z,50.85
2022-08-26T19:39:32.161Z,51.13
2022-08-26T19:46:25.969Z,50.88
2022-08-26T19:49:07.527Z,51.33
2022-08-26T19:51:44.048Z,51.05
2022-08-26T20:07:55.976Z,52.55
2022-08-26T20:10:26.218Z,53.27
2022-08-26T20:12:40.133Z,53.14
2022-08-26T20:14:52.231Z,53.12
2022-08-26T20:21:33.969Z,53.58
2022-08-26T20:23:37.965Z,52.91
2022-08-26T20:25:48.233Z,52.63
2022-08-26T20:27:57.040Z,52.28
2022-08-26T20:30:12.626Z,52.87
2022-08-26T20:32:22.020Z,52.54
2022-08-26T20:34:39.903Z,52.29
2022-08-26T20:39:50.036Z,52.48
2022-08-26T20:41:54.583Z,52.78
2022-08-26T20:43:58.878Z,52.46
2022-08-26T20:49:07.643Z,52.56
2022-08-26T20:51:44.226Z,52.24
2022-08-26T20:58:29.398Z,53.07
2022-08-26T21:00:44.067Z,53.14
2022-08-26T21:02:53.797Z,53.08
2022-08-26T21:05:11.956Z,53.29
2022-08-26T21:07:23.046Z,53.42
2022-08-26T21:09:32.639Z,53.33
2022-08-26T21:11:39.083Z,53.24
2022-08-26T21:20:37.093Z,53.46
2022-08-26T21:22:44.811Z,53.52
2022-08-26T21:24:53.066Z,53.46
2022-08-26T21:27:00.195Z,53.05
2022-08-26T21:29:06.154Z,53.36
2022-08-26T21:35:58.194Z,53.67
2022-08-26T21:38:10.161Z,54.28
2022-08-26T21:40:19.082Z,54.94
2022-08-26T21:42:33.844Z,54.91
2022-08-26T21:44:46.512Z,55.01
2022-08-26T21:46:59.714Z,55.53
2022-08-26T21:49:11.079Z,55.96
2022-08-26T21:51:23.478Z,55.73
2022-08-26T21:58:12.794Z,56.08
2022-08-26T22:11:36.238Z,57.03
2022-08-26T22:34:16.079Z,56.59
2022-08-26T22:58:35.409Z,56.91
2022-08-26T23:24:20.072Z,58.48
